Time,TemperatureF,DewpointF,PressureIn,WindDirection,WindDirectionDegrees,WindSpeedMPH,WindSpeedGustMPH,Humidity,HourlyPrecipIn,Conditions,Clouds,dailyrainin,SolarRadiationWatts/m^2,SoftwareType,DateUTC
2013-01-20 00:04:00,31.0,31.0,-100.00,South,187,0.0,4.0,99,0.00,,,0.00,0.000000,,2013-01-20 05:04:00,
2013-01-20 00:33:00,30.0,30.0,-100.00,East,91,1.0,5.0,99,0.00,,,0.00,0.000000,,2013-01-20 05:33:00,
2013-01-20 00:43:00,30.0,30.0,-100.00,East,91,1.0,5.0,99,0.00,,,0.00,0.000000,,2013-01-20 05:43:00,
2013-01-20 00:53:00,30.0,30.0,-100.00,East,91,1.0,5.0,99,0.00,,,0.00,0.000000,,2013-01-20 05:53:00,
2013-01-20 01:02:00,30.0,30.0,-100.00,East,91,1.0,5.0,99,0.00,,,0.00,0.000000,,2013-01-20 06:02:00,
2013-01-20 01:33:00,30.0,30.0,-100.00,ESE,114,1.0,3.0,100,0.00,,,0.00,0.000000,,2013-01-20 06:33:00,
2013-01-20 01:43:00,30.0,30.0,-100.00,ESE,114,1.0,3.0,100,0.00,,,0.00,0.000000,,2013-01-20 06:43:00,
2013-01-20 01:53:00,30.0,30.0,-100.00,ESE,114,1.0,3.0,100,0.00,,,0.00,0.000000,,2013-01-20 06:53:00,
2013-01-20 02:02:00,30.0,30.0,-100.00,ESE,114,1.0,3.0,100,0.00,,,0.00,0.000000,,2013-01-20 07:02:00,
2013-01-20 02:32:00,29.0,29.0,-100.00,SSE,147,1.0,7.0,98,0.00,,,0.00,0.000000,,2013-01-20 07:32:00,
2013-01-20 02:42:00,29.0,29.0,-100.00,SSE,147,1.0,7.0,98,0.00,,,0.00,0.000000,,2013-01-20 07:42:00,
2013-01-20 02:52:00,29.0,29.0,-100.00,SSE,147,1.0,7.0,98,0.00,,,0.00,0.000000,,2013-01-20 07:52:00,
2013-01-20 03:02:00,29.0,29.0,-100.00,SSE,147,1.0,7.0,98,0.00,,,0.00,0.000000,,2013-01-20 08:02:00,
2013-01-20 03:32:00,30.0,29.0,-100.00,East,83,2.0,6.0,96,0.00,,,0.00,0.000000,,2013-01-20 08:32:00,
2013-01-20 03:42:00,30.0,29.0,-100.00,East,83,2.0,6.0,96,0.00,,,0.00,0.000000,,2013-01-20 08:42:00,
2013-01-20 03:53:00,30.0,29.0,-100.00,East,83,2.0,6.0,96,0.00,,,0.00,0.000000,,2013-01-20 08:53:00,
2013-01-20 04:02:00,30.0,29.0,-100.00,East,83,2.0,6.0,96,0.00,,,0.00,0.000000,,2013-01-20 09:02:00,
2013-01-20 04:33:00,30.0,29.0,-100.00,East,94,0.0,9.0,96,0.00,,,0.00,0.000000,,2013-01-20 09:33:00,
2013-01-20 04:42:00,30.0,29.0,-100.00,East,94,0.0,9.0,96,0.00,,,0.00,0.000000,,2013-01-20 09:42:00,
2013-01-20 04:53:00,30.0,29.0,-100.00,East,94,0.0,9.0,96,0.00,,,0.00,0.000000,,2013-01-20 09:53:00,
2013-01-20 05:02:00,30.0,29.0,-100.00,East,94,0.0,9.0,96,0.00,,,0.00,0.000000,,2013-01-20 10:02:00,
2013-01-20 05:33:00,30.0,29.0,-100.00,SE,140,0.0,3.0,95,0.00,,,0.00,0.000000,,2013-01-20 10:33:00,
2013-01-20 05:42:00,30.0,29.0,-100.00,SE,140,0.0,3.0,95,0.00,,,0.00,0.000000,,2013-01-20 10:42:00,
2013-01-20 05:53:00,30.0,29.0,-100.00,SE,140,0.0,3.0,95,0.00,,,0.00,0.000000,,2013-01-20 10:53:00,
2013-01-20 06:03:00,30.0,29.0,-100.00,SE,140,0.0,3.0,95,0.00,,,0.00,0.000000,,2013-01-20 11:03:00,
2013-01-20 06:33:00,31.0,29.0,-100.00,South,183,2.0,4.0,91,0.00,,,0.00,0.000000,,2013-01-20 11:33:00,
2013-01-20 06:43:00,31.0,29.0,-100.00,South,183,2.0,4.0,91,0.00,,,0.00,0.000000,,2013-01-20 11:43:00,
2013-01-20 06:54:00,31.0,29.0,-100.00,South,183,2.0,4.0,91,0.00,,,0.00,0.000000,,2013-01-20 11:54:00,
2013-01-20 07:03:00,31.0,29.0,-100.00,South,183,2.0,4.0,91,0.00,,,0.00,0.000000,,2013-01-20 12:03:00,
2013-01-20 07:33:00,31.0,28.0,-100.00,South,188,2.0,4.0,89,0.00,,,0.00,0.000000,,2013-01-20 12:33:00,
2013-01-20 07:43:00,31.0,28.0,-100.00,South,188,2.0,4.0,89,0.00,,,0.00,0.000000,,2013-01-20 12:43:00,
2013-01-20 07:53:00,31.0,28.0,-100.00,South,188,2.0,4.0,89,0.00,,,0.00,0.000000,,2013-01-20 12:53:00,
2013-01-20 08:03:00,31.0,28.0,-100.00,South,188,2.0,4.0,89,0.00,,,0.00,0.000000,,2013-01-20 13:03:00,
2013-01-20 08:33:00,30.0,28.0,-100.00,SSE,159,1.0,4.0,91,0.00,,,0.00,6.000000,,2013-01-20 13:33:00,
2013-01-20 08:43:00,30.0,28.0,-100.00,SSE,159,1.0,4.0,91,0.00,,,0.00,6.000000,,2013-01-20 13:43:00,
2013-01-20 08:53:00,30.0,28.0,-100.00,SSE,159,1.0,4.0,91,0.00,,,0.00,6.000000,,2013-01-20 13:53:00,
2013-01-20 09:03:00,30.0,28.0,-100.00,SSE,159,1.0,4.0,91,0.00,,,0.00,6.000000,,2013-01-20 14:03:00,
2013-01-20 09:33:00,39.0,32.0,-100.00,NE,50,0.0,4.0,75,0.01,,,0.01,125.000000,,2013-01-20 14:33:00,
2013-01-20 09:43:00,39.0,32.0,-100.00,NE,50,0.0,4.0,75,0.01,,,0.01,125.000000,,2013-01-20 14:43:00,
2013-01-20 09:53:00,39.0,32.0,-100.00,NE,50,0.0,4.0,75,0.01,,,0.01,125.000000,,2013-01-20 14:53:00,
2013-01-20 10:03:00,39.0,32.0,-100.00,NE,50,0.0,4.0,75,0.01,,,0.01,125.000000,,2013-01-20 15:03:00,
2013-01-20 10:33:00,46.0,32.0,-100.00,WSW,249,4.0,8.0,58,0.00,,,0.01,277.000000,,2013-01-20 15:33:00,
2013-01-20 10:43:00,46.0,32.0,-100.00,WSW,249,4.0,8.0,58,0.00,,,0.01,277.000000,,2013-01-20 15:43:00,
2013-01-20 10:53:00,46.0,32.0,-100.00,WSW,249,4.0,8.0,58,0.00,,,0.01,277.000000,,2013-01-20 15:53:00,
2013-01-20 11:03:00,46.0,32.0,-100.00,WSW,249,4.0,8.0,58,0.00,,,0.01,277.000000,,2013-01-20 16:03:00,
2013-01-20 11:33:00,49.0,33.0,-100.00,WSW,244,5.0,12.0,53,0.00,,,0.01,417.000000,,2013-01-20 16:33:00,
2013-01-20 11:43:00,49.0,33.0,-100.00,WSW,244,5.0,12.0,53,0.00,,,0.01,417.000000,,2013-01-20 16:43:00,
2013-01-20 11:53:00,49.0,33.0,-100.00,WSW,244,5.0,12.0,53,0.00,,,0.01,417.000000,,2013-01-20 16:53:00,
2013-01-20 12:03:00,49.0,33.0,-100.00,WSW,244,5.0,12.0,53,0.00,,,0.01,417.000000,,2013-01-20 17:03:00,
2013-01-20 12:33:00,50.0,33.0,-100.00,West,259,5.0,12.0,52,0.00,,,0.01,506.000000,,2013-01-20 17:33:00,
2013-01-20 12:43:00,50.0,33.0,-100.00,West,259,5.0,12.0,52,0.00,,,0.01,506.000000,,2013-01-20 17:43:00,
2013-01-20 12:53:00,50.0,33.0,-100.00,West,259,5.0,12.0,52,0.00,,,0.01,506.000000,,2013-01-20 17:53:00,
2013-01-20 13:03:00,50.0,33.0,-100.00,West,259,5.0,12.0,52,0.00,,,0.01,506.000000,,2013-01-20 18:03:00,
2013-01-20 13:33:00,51.0,33.0,-100.00,WSW,245,5.0,10.0,49,0.00,,,0.01,533.000000,,2013-01-20 18:33:00,
2013-01-20 13:43:00,51.0,33.0,-100.00,WSW,245,5.0,10.0,49,0.00,,,0.01,533.000000,,2013-01-20 18:43:00,
2013-01-20 13:53:00,51.0,33.0,-100.00,WSW,245,5.0,10.0,49,0.00,,,0.01,533.000000,,2013-01-20 18:53:00,
2013-01-20 14:03:00,51.0,33.0,-100.00,WSW,245,5.0,10.0,49,0.00,,,0.01,533.000000,,2013-01-20 19:03:00,
2013-01-20 14:33:00,53.0,33.0,-100.00,SW,235,5.0,11.0,46,0.00,,,0.01,342.000000,,2013-01-20 19:33:00,
2013-01-20 14:43:00,53.0,33.0,-100.00,SW,235,5.0,11.0,46,0.00,,,0.01,342.000000,,2013-01-20 19:43:00,
2013-01-20 14:53:00,53.0,33.0,-100.00,SW,235,5.0,11.0,46,0.00,,,0.01,342.000000,,2013-01-20 19:53:00,
2013-01-20 15:03:00,53.0,33.0,-100.00,SW,235,5.0,11.0,46,0.00,,,0.01,342.000000,,2013-01-20 20:03:00,
2013-01-20 15:33:00,53.0,32.0,-100.00,WSW,258,4.0,11.0,45,0.00,,,0.01,179.000000,,2013-01-20 20:33:00,
2013-01-20 15:42:00,53.0,32.0,-100.00,WSW,258,4.0,11.0,45,0.00,,,0.01,179.000000,,2013-01-20 20:42:00,
2013-01-20 15:54:00,53.0,32.0,-100.00,WSW,258,4.0,11.0,45,0.00,,,0.01,179.000000,,2013-01-20 20:54:00,
2013-01-20 16:04:00,53.0,32.0,-100.00,WSW,258,4.0,11.0,45,0.00,,,0.01,179.000000,,2013-01-20 21:04:00,
2013-01-20 16:33:00,55.0,33.0,-100.00,SW,235,3.0,11.0,43,0.00,,,0.01,150.000000,,2013-01-20 21:33:00,
2013-01-20 16:43:00,55.0,33.0,-100.00,SW,235,3.0,11.0,43,0.00,,,0.01,150.000000,,2013-01-20 21:43:00,
2013-01-20 16:53:00,55.0,33.0,-100.00,SW,235,3.0,11.0,43,0.00,,,0.01,150.000000,,2013-01-20 21:53:00,
2013-01-20 17:03:00,55.0,33.0,-100.00,SW,235,3.0,11.0,43,0.00,,,0.01,150.000000,,2013-01-20 22:03:00,
2013-01-20 17:33:00,52.0,32.0,-100.00,SW,232,3.0,9.0,46,0.00,,,0.01,109.000000,,2013-01-20 22:33:00,
2013-01-20 17:43:00,52.0,32.0,-100.00,SW,232,3.0,9.0,46,0.00,,,0.01,109.000000,,2013-01-20 22:43:00,
2013-01-20 17:53:00,52.0,32.0,-100.00,SW,232,3.0,9.0,46,0.00,,,0.01,109.000000,,2013-01-20 22:53:00,
2013-01-20 18:03:00,52.0,32.0,-100.00,SW,232,3.0,9.0,46,0.00,,,0.01,109.000000,,2013-01-20 23:03:00,
2013-01-20 18:33:00,47.0,34.0,-100.00,WNW,290,0.0,6.0,60,0.00,,,0.01,10.000000,,2013-01-20 23:33:00,
2013-01-20 18:43:00,47.0,34.0,-100.00,WNW,290,0.0,6.0,60,0.00,,,0.01,10.000000,,2013-01-20 23:43:00,
2013-01-20 18:53:00,47.0,34.0,-100.00,WNW,290,0.0,6.0,60,0.00,,,0.01,10.000000,,2013-01-20 23:53:00,
2013-01-20 19:03:00,47.0,34.0,-100.00,WNW,290,0.0,6.0,60,0.00,,,0.01,10.000000,,2013-01-21 00:03:00,
2013-01-20 19:33:00,42.0,33.0,-100.00,WSW,237,0.0,3.0,71,0.00,,,0.01,0.000000,,2013-01-21 00:33:00,
2013-01-20 19:43:00,42.0,33.0,-100.00,WSW,237,0.0,3.0,71,0.00,,,0.01,0.000000,,2013-01-21 00:43:00,
2013-01-20 19:54:00,42.0,33.0,-100.00,WSW,237,0.0,3.0,71,0.00,,,0.01,0.000000,,2013-01-21 00:54:00,
2013-01-20 20:03:00,42.0,33.0,-100.00,WSW,237,0.0,3.0,71,0.00,,,0.01,0.000000,,2013-01-21 01:03:00,
2013-01-20 20:33:00,38.0,33.0,-100.00,SSW,196,2.0,3.0,81,0.00,,,0.01,0.000000,,2013-01-21 01:33:00,
2013-01-20 20:43:00,38.0,33.0,-100.00,SSW,196,2.0,3.0,81,0.00,,,0.01,0.000000,,2013-01-21 01:43:00,
2013-01-20 20:53:00,38.0,33.0,-100.00,SSW,196,2.0,3.0,81,0.00,,,0.01,0.000000,,2013-01-21 01:53:00,
2013-01-20 21:03:00,38.0,33.0,-100.00,SSW,196,2.0,3.0,81,0.00,,,0.01,0.000000,,2013-01-21 02:03:00,
2013-01-20 21:33:00,36.0,33.0,-100.00,SW,225,2.0,3.0,87,0.00,,,0.01,0.000000,,2013-01-21 02:33:00,
2013-01-20 21:43:00,36.0,33.0,-100.00,SW,225,2.0,3.0,87,0.00,,,0.01,0.000000,,2013-01-21 02:43:00,
2013-01-20 21:53:00,36.0,33.0,-100.00,SW,225,2.0,3.0,87,0.00,,,0.01,0.000000,,2013-01-21 02:53:00,
2013-01-20 22:03:00,36.0,33.0,-100.00,SW,225,2.0,3.0,87,0.00,,,0.01,0.000000,,2013-01-21 03:03:00,
2013-01-20 22:33:00,34.0,32.0,-100.00,SW,215,1.0,3.0,91,0.00,,,0.01,0.000000,,2013-01-21 03:33:00,
2013-01-20 22:43:00,34.0,32.0,-100.00,SW,215,1.0,3.0,91,0.00,,,0.01,0.000000,,2013-01-21 03:43:00,
2013-01-20 22:54:00,34.0,32.0,-100.00,SW,215,1.0,3.0,91,0.00,,,0.01,0.000000,,2013-01-21 03:54:00,
2013-01-20 23:03:00,34.0,32.0,-100.00,SW,215,1.0,3.0,91,0.00,,,0.01,0.000000,,2013-01-21 04:03:00,
2013-01-20 23:33:00,32.0,30.0,-100.00,SW,216,1.0,3.0,93,0.00,,,0.01,0.000000,,2013-01-21 04:33:00,
2013-01-20 23:43:00,32.0,30.0,-100.00,SW,216,1.0,3.0,93,0.00,,,0.01,0.000000,,2013-01-21 04:43:00,
2013-01-20 23:53:00,32.0,30.0,-100.00,SW,216,1.0,3.0,93,0.00,,,0.01,0.000000,,2013-01-21 04:53:00,